Talmage, Utah
Current Conditions -  °F | °C
As of 8:53 PM on Friday 24 Oct 2014 (Local Time) from KVEL Reporting Station
Clear Clear  
Wind Chill: 51°   Ceiling: Unl
Heat Index: 51°   Visibility: 10mi
Dew Point: 35°   Wind: 6mph
Humidity: 54%   Direction: 290°WNW
Pressure: 30.22"   Gusts: NA
Location:  40.34°N, 110.43°W
Report Text: KVEL 250253Z AUTO 29005KT 10SM CLR 11/02 A3022 RMK AO2 SLP215 T01060017 53009
Loading
Personal Weather Stations






























Interactive Weather Map
Tropical Storm Tracking
New forecast layout! Learn more

10-Day Weather Forecast

Advertisements
Track Severe Weather on mobile